Austin, Texas
Traffic Map
Current Weather Conditions
Austin, Texas
Clear
Clear
27°
Feels Like: 28°
Wind Chill: 27° Ceiling: Unl
Heat Index: 28° Visibility: 10mi
Dew Point: 20° Wind: 7mph
Humidity: 67% Direction: 140° (SE)
Pressure: 29.98in Gusts: 0mph
Raw Report DataKATT 030351Z AUTO 14006KT 10SM CLR 27/20 A2998 RMK AO2 SLP139 T02670200
Traffic Incident Summary
Active as of:
Severity:
Category:
InformationThere was an issue retrieving the traffic information for this location. Please try a different location or try again shortly.
Advertisements
Track Severe Weather on mobile